sensor_id;sensor_type;location;lat;lon;timestamp;pressure;altitude;pressure_sealevel;temperature;humidity
55664;BME280;41540;57.880;12.164;2022-08-01T00:06:26;100274.22;;;15.38;nan
55664;BME280;41540;57.880;12.164;2022-08-01T00:16:26;100532.66;;;15.12;nan
55664;BME280;41540;57.880;12.164;2022-08-01T00:26:29;101085.13;;;15.34;nan
55664;BME280;41540;57.880;12.164;2022-08-01T00:36:30;101018.22;;;15.50;nan
55664;BME280;41540;57.880;12.164;2022-08-01T00:46:31;101140.03;;;15.47;nan
55664;BME280;41540;57.880;12.164;2022-08-01T00:56:31;101624.75;;;15.42;nan
55664;BME280;41540;57.880;12.164;2022-08-01T01:16:42;102177.47;;;15.43;nan
55664;BME280;41540;57.880;12.164;2022-08-01T01:26:52;101926.94;;;15.50;nan
55664;BME280;41540;57.880;12.164;2022-08-01T01:36:54;101951.38;;;15.54;nan
55664;BME280;41540;57.880;12.164;2022-08-01T01:46:57;101705.03;;;15.56;nan
55664;BME280;41540;57.880;12.164;2022-08-01T01:57:00;101481.13;;;15.42;nan
55664;BME280;41540;57.880;12.164;2022-08-01T02:07:03;101467.34;;;15.53;nan
55664;BME280;41540;57.880;12.164;2022-08-01T02:17:04;101363.84;;;15.60;nan
55664;BME280;41540;57.880;12.164;2022-08-01T02:27:16;101346.59;;;15.76;nan
55664;BME280;41540;57.880;12.164;2022-08-01T02:37:19;101272.59;;;15.77;nan
55664;BME280;41540;57.880;12.164;2022-08-01T02:47:22;101130.53;;;15.59;nan
55664;BME280;41540;57.880;12.164;2022-08-01T02:57:24;101115.00;;;15.76;nan
55664;BME280;41540;57.880;12.164;2022-08-01T03:07:28;100968.56;;;15.41;nan
55664;BME280;41540;57.880;12.164;2022-08-01T03:17:30;101088.09;;;15.97;nan
55664;BME280;41540;57.880;12.164;2022-08-01T03:27:32;101040.16;;;15.98;nan
55664;BME280;41540;57.880;12.164;2022-08-01T03:47:35;101024.50;;;16.02;nan
55664;BME280;41540;57.880;12.164;2022-08-01T03:57:36;100987.03;;;16.03;nan
55664;BME280;41540;57.880;12.164;2022-08-01T04:07:37;100941.78;;;16.13;nan
55664;BME280;41540;57.880;12.164;2022-08-01T04:17:39;100853.78;;;15.96;nan
55664;BME280;41540;57.880;12.164;2022-08-01T04:27:43;100846.84;;;16.12;nan
55664;BME280;41540;57.880;12.164;2022-08-01T04:37:46;100723.16;;;15.78;nan
55664;BME280;41540;57.880;12.164;2022-08-01T04:47:49;100694.41;;;15.95;nan
55664;BME280;41540;57.880;12.164;2022-08-01T04:57:49;100695.22;;;16.18;nan
55664;BME280;41540;57.880;12.164;2022-08-01T05:07:50;100675.97;;;16.40;nan
55664;BME280;41540;57.880;12.164;2022-08-01T05:17:50;100642.03;;;16.29;nan
55664;BME280;41540;57.880;12.164;2022-08-01T05:27:51;100620.22;;;16.37;nan
55664;BME280;41540;57.880;12.164;2022-08-01T05:37:51;100569.50;;;16.62;nan
55664;BME280;41540;57.880;12.164;2022-08-01T05:47:52;100503.41;;;16.40;nan
55664;BME280;41540;57.880;12.164;2022-08-01T05:57:52;100509.72;;;16.09;nan
55664;BME280;41540;57.880;12.164;2022-08-01T06:07:53;100434.97;;;15.87;nan
55664;BME280;41540;57.880;12.164;2022-08-01T06:17:53;100426.56;;;18.05;nan
55664;BME280;41540;57.880;12.164;2022-08-01T06:27:54;100384.75;;;17.35;nan
55664;BME280;41540;57.880;12.164;2022-08-01T06:37:55;100386.69;;;17.84;nan
55664;BME280;41540;57.880;12.164;2022-08-01T06:47:57;100283.84;;;17.70;nan
55664;BME280;41540;57.880;12.164;2022-08-01T06:57:58;100254.00;;;18.30;nan
55664;BME280;41540;57.880;12.164;2022-08-01T07:07:58;100156.91;;;18.33;nan
55664;BME280;41540;57.880;12.164;2022-08-01T07:17:59;100119.31;;;19.12;nan
55664;BME280;41540;57.880;12.164;2022-08-01T07:28:03;100026.78;;;19.68;nan
55664;BME280;41540;57.880;12.164;2022-08-01T07:38:05;99880.63;;;19.64;nan
55664;BME280;41540;57.880;12.164;2022-08-01T07:48:06;99944.13;;;23.92;nan
55664;BME280;41540;57.880;12.164;2022-08-01T07:58:06;99977.25;;;25.60;nan
55664;BME280;41540;57.880;12.164;2022-08-01T08:08:08;99969.78;;;25.51;nan
55664;BME280;41540;57.880;12.164;2022-08-01T08:18:10;99634.25;;;20.93;nan
55664;BME280;41540;57.880;12.164;2022-08-01T08:28:10;99504.31;;;20.28;nan
55664;BME280;41540;57.880;12.164;2022-08-01T08:38:11;99557.16;;;21.53;nan
55664;BME280;41540;57.880;12.164;2022-08-01T08:48:12;99636.22;;;23.27;nan
55664;BME280;41540;57.880;12.164;2022-08-01T08:58:14;99501.72;;;20.50;nan
55664;BME280;41540;57.880;12.164;2022-08-01T09:08:17;99535.09;;;22.71;nan
55664;BME280;41540;57.880;12.164;2022-08-01T09:28:34;99570.66;;;23.18;nan
55664;BME280;41540;57.880;12.164;2022-08-01T09:38:37;99539.94;;;22.97;nan
55664;BME280;41540;57.880;12.164;2022-08-01T09:48:37;99666.88;;;23.31;nan
55664;BME280;41540;57.880;12.164;2022-08-01T09:58:53;99549.16;;;23.25;nan
55664;BME280;41540;57.880;12.164;2022-08-01T10:08:54;99538.47;;;23.44;nan
55664;BME280;41540;57.880;12.164;2022-08-01T10:18:55;99470.31;;;22.81;nan
55664;BME280;41540;57.880;12.164;2022-08-01T10:28:56;99345.69;;;23.09;nan
55664;BME280;41540;57.880;12.164;2022-08-01T10:38:59;99355.06;;;22.47;nan
55664;BME280;41540;57.880;12.164;2022-08-01T10:49:03;99388.16;;;23.38;nan
55664;BME280;41540;57.880;12.164;2022-08-01T10:59:04;99423.91;;;22.77;nan
55664;BME280;41540;57.880;12.164;2022-08-01T11:09:21;99332.41;;;21.70;nan
55664;BME280;41540;57.880;12.164;2022-08-01T11:19:23;99383.06;;;22.32;nan
55664;BME280;41540;57.880;12.164;2022-08-01T11:29:24;99450.44;;;22.01;nan
55664;BME280;41540;57.880;12.164;2022-08-01T11:39:25;99338.66;;;21.50;nan
55664;BME280;41540;57.880;12.164;2022-08-01T11:59:52;99803.28;;;22.75;nan
55664;BME280;41540;57.880;12.164;2022-08-01T12:10:05;99775.56;;;22.24;nan
55664;BME280;41540;57.880;12.164;2022-08-01T12:20:09;99841.56;;;21.34;nan
55664;BME280;41540;57.880;12.164;2022-08-01T12:30:15;99780.53;;;21.22;nan
55664;BME280;41540;57.880;12.164;2022-08-01T12:50:25;99402.03;;;20.00;nan
55664;BME280;41540;57.880;12.164;2022-08-01T13:00:28;99434.78;;;20.35;nan
55664;BME280;41540;57.880;12.164;2022-08-01T13:10:30;99440.47;;;20.69;nan
55664;BME280;41540;57.880;12.164;2022-08-01T13:20:32;99483.53;;;20.66;nan
55664;BME280;41540;57.880;12.164;2022-08-01T13:30:33;99961.00;;;21.82;nan
55664;BME280;41540;57.880;12.164;2022-08-01T13:40:33;100052.06;;;21.67;nan
55664;BME280;41540;57.880;12.164;2022-08-01T13:50:34;100080.66;;;21.77;nan
55664;BME280;41540;57.880;12.164;2022-08-01T14:00:34;100093.16;;;21.20;nan
55664;BME280;41540;57.880;12.164;2022-08-01T14:10:37;100113.09;;;21.54;nan
55664;BME280;41540;57.880;12.164;2022-08-01T14:20:38;100089.25;;;21.32;nan
55664;BME280;41540;57.880;12.164;2022-08-01T14:30:40;100079.94;;;20.95;nan
55664;BME280;41540;57.880;12.164;2022-08-01T14:40:42;100124.47;;;20.75;nan
55664;BME280;41540;57.880;12.164;2022-08-01T14:50:43;100108.47;;;20.81;nan
55664;BME280;41540;57.880;12.164;2022-08-01T15:00:43;100091.72;;;20.55;nan
55664;BME280;41540;57.880;12.164;2022-08-01T15:10:44;100061.03;;;19.65;nan
55664;BME280;41540;57.880;12.164;2022-08-01T15:20:44;99995.59;;;19.89;nan
55664;BME280;41540;57.880;12.164;2022-08-01T15:30:45;100046.59;;;20.39;nan
55664;BME280;41540;57.880;12.164;2022-08-01T15:40:45;100076.19;;;20.76;nan
55664;BME280;41540;57.880;12.164;2022-08-01T15:50:47;100029.44;;;19.68;nan
55664;BME280;41540;57.880;12.164;2022-08-01T16:00:47;99982.94;;;19.39;nan
55664;BME280;41540;57.880;12.164;2022-08-01T16:10:48;99830.94;;;19.28;nan
55664;BME280;41540;57.880;12.164;2022-08-01T16:20:48;99691.09;;;18.34;nan
55664;BME280;41540;57.880;12.164;2022-08-01T16:30:49;99772.88;;;18.46;nan
55664;BME280;41540;57.880;12.164;2022-08-01T16:40:50;99864.91;;;18.72;nan
55664;BME280;41540;57.880;12.164;2022-08-01T16:50:50;99870.22;;;18.68;nan
55664;BME280;41540;57.880;12.164;2022-08-01T17:00:52;99888.06;;;18.54;nan
55664;BME280;41540;57.880;12.164;2022-08-01T17:10:52;99830.75;;;18.06;nan
55664;BME280;41540;57.880;12.164;2022-08-01T17:20:53;99974.13;;;18.01;nan
55664;BME280;41540;57.880;12.164;2022-08-01T17:30:53;99906.91;;;17.58;nan
55664;BME280;41540;57.880;12.164;2022-08-01T17:40:54;99922.63;;;17.14;nan
55664;BME280;41540;57.880;12.164;2022-08-01T17:50:54;99906.31;;;17.01;nan
55664;BME280;41540;57.880;12.164;2022-08-01T18:00:54;99929.41;;;16.77;nan
55664;BME280;41540;57.880;12.164;2022-08-01T18:10:56;99804.88;;;16.69;nan
55664;BME280;41540;57.880;12.164;2022-08-01T18:20:56;99802.81;;;16.41;nan
55664;BME280;41540;57.880;12.164;2022-08-01T18:30:57;99687.44;;;15.65;nan
55664;BME280;41540;57.880;12.164;2022-08-01T18:40:57;99709.22;;;15.65;nan
55664;BME280;41540;57.880;12.164;2022-08-01T18:50:58;99694.84;;;15.38;nan
55664;BME280;41540;57.880;12.164;2022-08-01T19:00:59;99494.84;;;15.34;nan
55664;BME280;41540;57.880;12.164;2022-08-01T19:11:00;99462.63;;;14.90;nan
55664;BME280;41540;57.880;12.164;2022-08-01T19:21:01;99507.78;;;14.92;nan
55664;BME280;41540;57.880;12.164;2022-08-01T19:31:06;99523.25;;;14.45;nan
55664;BME280;41540;57.880;12.164;2022-08-01T19:41:09;99643.97;;;14.46;nan
55664;BME280;41540;57.880;12.164;2022-08-01T19:51:14;99654.78;;;14.12;nan
55664;BME280;41540;57.880;12.164;2022-08-01T20:01:16;99818.03;;;14.11;nan
55664;BME280;41540;57.880;12.164;2022-08-01T20:11:16;99880.81;;;13.71;nan
55664;BME280;41540;57.880;12.164;2022-08-01T20:21:18;99938.06;;;13.73;nan
55664;BME280;41540;57.880;12.164;2022-08-01T20:31:20;100017.09;;;13.58;nan
55664;BME280;41540;57.880;12.164;2022-08-01T20:41:22;99976.38;;;13.24;nan
55664;BME280;41540;57.880;12.164;2022-08-01T20:51:27;99995.50;;;12.99;nan
55664;BME280;41540;57.880;12.164;2022-08-01T21:01:30;100158.47;;;13.18;nan
55664;BME280;41540;57.880;12.164;2022-08-01T21:11:50;100266.88;;;13.32;nan
55664;BME280;41540;57.880;12.164;2022-08-01T21:22:09;100290.28;;;13.30;nan
55664;BME280;41540;57.880;12.164;2022-08-01T21:32:13;100242.56;;;13.22;nan
55664;BME280;41540;57.880;12.164;2022-08-01T21:42:15;99979.06;;;12.74;nan
55664;BME280;41540;57.880;12.164;2022-08-01T21:52:16;99960.88;;;12.67;nan
55664;BME280;41540;57.880;12.164;2022-08-01T22:02:27;100056.16;;;13.07;nan
55664;BME280;41540;57.880;12.164;2022-08-01T22:12:32;100025.81;;;13.00;nan
55664;BME280;41540;57.880;12.164;2022-08-01T22:22:33;99868.13;;;12.85;nan
55664;BME280;41540;57.880;12.164;2022-08-01T22:32:37;99794.47;;;12.91;nan
55664;BME280;41540;57.880;12.164;2022-08-01T22:42:55;99838.75;;;12.60;nan
55664;BME280;41540;57.880;12.164;2022-08-01T22:53:09;99913.22;;;12.73;nan
55664;BME280;41540;57.880;12.164;2022-08-01T23:03:14;100082.09;;;12.45;nan
55664;BME280;41540;57.880;12.164;2022-08-01T23:13:17;100396.59;;;12.64;nan
55664;BME280;41540;57.880;12.164;2022-08-01T23:23:18;100377.53;;;11.61;nan
55664;BME280;41540;57.880;12.164;2022-08-01T23:33:19;100519.53;;;12.54;nan
55664;BME280;41540;57.880;12.164;2022-08-01T23:43:20;100487.16;;;12.18;nan
55664;BME280;41540;57.880;12.164;2022-08-01T23:53:20;100496.69;;;12.20;nan
